Leersum, Netherlands
Current Conditions -  °F | °C
As of 9:55 AM on Wednesday 22 Oct 2014 (Local Time) from EHDL Reporting Station
Broken Clouds Broken Clouds  
Wind Chill: 41°   Ceiling: 7900
Heat Index: 46°   Visibility: 6mi
Dew Point: 43°   Wind: 12mph
Humidity: 87%   Direction: 290°WNW
Pressure: 29.97"   Gusts: NA
Location:  52.01°N, 5.43°E
Report Text: EHDL 220755Z AUTO 29010KT 9999 FEW015TCU BKN079 BKN088 08/06 Q1015 BLU
Loading
Personal Weather Stations






























Interactive Weather Map
Tropical Storm Tracking
New forecast layout! Learn more

10-Day Weather Forecast

Advertisements
Track Severe Weather on mobile